sensor_id;sensor_type;location;lat;lon;timestamp;P1;durP1;ratioP1;P2;durP2;ratioP2
35634;SDS011;21757;43.610;1.440;2023-04-27T00:00:56;9.80;;;8.40;;
35634;SDS011;21757;43.610;1.440;2023-04-27T00:03:21;11.18;;;8.13;;
35634;SDS011;21757;43.610;1.440;2023-04-27T00:05:47;10.15;;;7.88;;
35634;SDS011;21757;43.610;1.440;2023-04-27T00:08:13;8.63;;;7.45;;
35634;SDS011;21757;43.610;1.440;2023-04-27T00:10:38;10.32;;;6.30;;
35634;SDS011;21757;43.610;1.440;2023-04-27T00:13:04;7.95;;;6.53;;
35634;SDS011;21757;43.610;1.440;2023-04-27T00:15:30;7.78;;;6.53;;
35634;SDS011;21757;43.610;1.440;2023-04-27T00:17:55;10.10;;;6.88;;
35634;SDS011;21757;43.610;1.440;2023-04-27T00:20:21;16.05;;;10.90;;
35634;SDS011;21757;43.610;1.440;2023-04-27T00:22:47;8.00;;;7.00;;
35634;SDS011;21757;43.610;1.440;2023-04-27T00:25:13;9.55;;;6.70;;
35634;SDS011;21757;43.610;1.440;2023-04-27T00:27:39;6.50;;;5.65;;
35634;SDS011;21757;43.610;1.440;2023-04-27T00:30:04;7.20;;;6.40;;
35634;SDS011;21757;43.610;1.440;2023-04-27T00:32:30;6.00;;;5.32;;
35634;SDS011;21757;43.610;1.440;2023-04-27T00:34:56;6.53;;;5.82;;
35634;SDS011;21757;43.610;1.440;2023-04-27T00:37:22;6.35;;;5.68;;
35634;SDS011;21757;43.610;1.440;2023-04-27T00:39:47;6.95;;;6.20;;
35634;SDS011;21757;43.610;1.440;2023-04-27T00:42:13;6.72;;;5.80;;
35634;SDS011;21757;43.610;1.440;2023-04-27T00:44:43;11.15;;;8.00;;
35634;SDS011;21757;43.610;1.440;2023-04-27T00:47:09;7.72;;;6.35;;
35634;SDS011;21757;43.610;1.440;2023-04-27T00:49:36;8.85;;;7.38;;
35634;SDS011;21757;43.610;1.440;2023-04-27T00:52:02;11.65;;;9.07;;
35634;SDS011;21757;43.610;1.440;2023-04-27T00:54:27;6.90;;;5.32;;
35634;SDS011;21757;43.610;1.440;2023-04-27T00:56:53;6.47;;;5.88;;
35634;SDS011;21757;43.610;1.440;2023-04-27T00:59:19;6.13;;;5.53;;
35634;SDS011;21757;43.610;1.440;2023-04-27T01:01:45;8.48;;;6.82;;
35634;SDS011;21757;43.610;1.440;2023-04-27T01:04:12;9.35;;;7.40;;
35634;SDS011;21757;43.610;1.440;2023-04-27T01:06:37;8.85;;;6.65;;
35634;SDS011;21757;43.610;1.440;2023-04-27T01:09:03;7.60;;;6.30;;
35634;SDS011;21757;43.610;1.440;2023-04-27T01:11:34;5.70;;;5.07;;
35634;SDS011;21757;43.610;1.440;2023-04-27T01:14:03;5.85;;;4.85;;
35634;SDS011;21757;43.610;1.440;2023-04-27T01:16:33;5.95;;;5.03;;
35634;SDS011;21757;43.610;1.440;2023-04-27T01:19:01;6.25;;;5.60;;
35634;SDS011;21757;43.610;1.440;2023-04-27T01:21:27;6.63;;;5.03;;
35634;SDS011;21757;43.610;1.440;2023-04-27T01:23:53;5.53;;;4.80;;
35634;SDS011;21757;43.610;1.440;2023-04-27T01:26:19;5.88;;;5.20;;
35634;SDS011;21757;43.610;1.440;2023-04-27T01:28:45;6.50;;;5.85;;
35634;SDS011;21757;43.610;1.440;2023-04-27T01:31:11;8.63;;;5.82;;
35634;SDS011;21757;43.610;1.440;2023-04-27T01:33:37;6.13;;;5.10;;
35634;SDS011;21757;43.610;1.440;2023-04-27T01:36:03;7.72;;;5.03;;
35634;SDS011;21757;43.610;1.440;2023-04-27T01:38:29;6.57;;;5.40;;
35634;SDS011;21757;43.610;1.440;2023-04-27T01:40:57;6.32;;;5.55;;
35634;SDS011;21757;43.610;1.440;2023-04-27T01:43:29;6.35;;;5.45;;
35634;SDS011;21757;43.610;1.440;2023-04-27T01:45:55;7.10;;;4.88;;
35634;SDS011;21757;43.610;1.440;2023-04-27T01:48:28;5.93;;;5.28;;
35634;SDS011;21757;43.610;1.440;2023-04-27T01:50:54;5.68;;;5.18;;
35634;SDS011;21757;43.610;1.440;2023-04-27T01:53:19;5.72;;;5.00;;
35634;SDS011;21757;43.610;1.440;2023-04-27T01:55:45;7.30;;;5.30;;
35634;SDS011;21757;43.610;1.440;2023-04-27T01:58:11;5.57;;;5.07;;
35634;SDS011;21757;43.610;1.440;2023-04-27T02:00:37;5.45;;;4.90;;
35634;SDS011;21757;43.610;1.440;2023-04-27T02:03:02;5.57;;;5.07;;
35634;SDS011;21757;43.610;1.440;2023-04-27T02:05:28;7.13;;;4.88;;
35634;SDS011;21757;43.610;1.440;2023-04-27T02:07:54;5.28;;;4.78;;
35634;SDS011;21757;43.610;1.440;2023-04-27T02:10:20;7.28;;;5.90;;
35634;SDS011;21757;43.610;1.440;2023-04-27T02:12:46;8.15;;;6.70;;
35634;SDS011;21757;43.610;1.440;2023-04-27T02:15:12;6.57;;;5.70;;
35634;SDS011;21757;43.610;1.440;2023-04-27T02:17:38;6.75;;;5.95;;
35634;SDS011;21757;43.610;1.440;2023-04-27T02:20:04;6.18;;;5.57;;
35634;SDS011;21757;43.610;1.440;2023-04-27T02:22:31;6.72;;;5.82;;
35634;SDS011;21757;43.610;1.440;2023-04-27T02:24:58;8.13;;;5.47;;
35634;SDS011;21757;43.610;1.440;2023-04-27T02:27:24;6.10;;;5.50;;
35634;SDS011;21757;43.610;1.440;2023-04-27T02:29:50;6.68;;;5.70;;
35634;SDS011;21757;43.610;1.440;2023-04-27T02:32:15;6.97;;;5.65;;
35634;SDS011;21757;43.610;1.440;2023-04-27T02:34:41;7.32;;;5.22;;
35634;SDS011;21757;43.610;1.440;2023-04-27T02:37:07;6.75;;;5.97;;
35634;SDS011;21757;43.610;1.440;2023-04-27T02:39:32;7.10;;;5.65;;
35634;SDS011;21757;43.610;1.440;2023-04-27T02:41:58;6.43;;;5.80;;
35634;SDS011;21757;43.610;1.440;2023-04-27T02:44:24;6.93;;;5.70;;
35634;SDS011;21757;43.610;1.440;2023-04-27T02:46:49;6.60;;;5.22;;
35634;SDS011;21757;43.610;1.440;2023-04-27T02:49:15;6.03;;;5.40;;
35634;SDS011;21757;43.610;1.440;2023-04-27T02:51:41;7.15;;;5.07;;
35634;SDS011;21757;43.610;1.440;2023-04-27T02:54:07;5.15;;;4.63;;
35634;SDS011;21757;43.610;1.440;2023-04-27T02:56:33;6.15;;;4.70;;
35634;SDS011;21757;43.610;1.440;2023-04-27T02:58:59;5.85;;;5.15;;
35634;SDS011;21757;43.610;1.440;2023-04-27T03:01:25;5.78;;;5.15;;
35634;SDS011;21757;43.610;1.440;2023-04-27T03:03:50;5.32;;;4.43;;
35634;SDS011;21757;43.610;1.440;2023-04-27T03:06:16;6.45;;;4.50;;
35634;SDS011;21757;43.610;1.440;2023-04-27T03:08:42;5.40;;;4.65;;
35634;SDS011;21757;43.610;1.440;2023-04-27T03:11:07;5.90;;;4.43;;
35634;SDS011;21757;43.610;1.440;2023-04-27T03:13:33;5.93;;;4.38;;
35634;SDS011;21757;43.610;1.440;2023-04-27T03:16:06;5.00;;;4.50;;
35634;SDS011;21757;43.610;1.440;2023-04-27T03:18:34;5.28;;;4.40;;
35634;SDS011;21757;43.610;1.440;2023-04-27T03:21:06;5.78;;;4.43;;
35634;SDS011;21757;43.610;1.440;2023-04-27T03:23:36;5.03;;;4.50;;
35634;SDS011;21757;43.610;1.440;2023-04-27T03:26:08;8.18;;;5.28;;
35634;SDS011;21757;43.610;1.440;2023-04-27T03:28:35;7.25;;;5.38;;
35634;SDS011;21757;43.610;1.440;2023-04-27T03:31:05;4.65;;;4.07;;
35634;SDS011;21757;43.610;1.440;2023-04-27T03:33:32;4.45;;;4.07;;
35634;SDS011;21757;43.610;1.440;2023-04-27T03:35:58;4.32;;;3.92;;
35634;SDS011;21757;43.610;1.440;2023-04-27T03:38:24;5.20;;;4.30;;
35634;SDS011;21757;43.610;1.440;2023-04-27T03:40:50;5.55;;;4.70;;
35634;SDS011;21757;43.610;1.440;2023-04-27T03:43:17;5.40;;;4.32;;
35634;SDS011;21757;43.610;1.440;2023-04-27T03:45:43;4.57;;;4.18;;
35634;SDS011;21757;43.610;1.440;2023-04-27T03:48:09;4.70;;;4.25;;
35634;SDS011;21757;43.610;1.440;2023-04-27T03:50:34;4.80;;;4.25;;
35634;SDS011;21757;43.610;1.440;2023-04-27T03:53:00;6.07;;;4.57;;
35634;SDS011;21757;43.610;1.440;2023-04-27T03:55:26;5.55;;;5.05;;
35634;SDS011;21757;43.610;1.440;2023-04-27T03:57:52;5.35;;;4.75;;
35634;SDS011;21757;43.610;1.440;2023-04-27T04:00:17;5.07;;;4.57;;
35634;SDS011;21757;43.610;1.440;2023-04-27T04:02:43;6.10;;;4.50;;
35634;SDS011;21757;43.610;1.440;2023-04-27T04:05:10;6.38;;;4.47;;
35634;SDS011;21757;43.610;1.440;2023-04-27T04:07:38;5.32;;;4.82;;
35634;SDS011;21757;43.610;1.440;2023-04-27T04:10:06;5.45;;;4.30;;
35634;SDS011;21757;43.610;1.440;2023-04-27T04:12:32;5.60;;;5.10;;
35634;SDS011;21757;43.610;1.440;2023-04-27T04:14:57;5.60;;;5.10;;
35634;SDS011;21757;43.610;1.440;2023-04-27T04:17:23;5.60;;;4.57;;
35634;SDS011;21757;43.610;1.440;2023-04-27T04:19:49;5.95;;;4.53;;
35634;SDS011;21757;43.610;1.440;2023-04-27T04:22:15;5.28;;;4.78;;
35634;SDS011;21757;43.610;1.440;2023-04-27T04:24:41;6.38;;;5.03;;
35634;SDS011;21757;43.610;1.440;2023-04-27T04:27:07;5.82;;;4.68;;
35634;SDS011;21757;43.610;1.440;2023-04-27T04:29:33;7.05;;;6.35;;
35634;SDS011;21757;43.610;1.440;2023-04-27T04:31:59;7.97;;;6.75;;
35634;SDS011;21757;43.610;1.440;2023-04-27T04:34:24;5.95;;;4.88;;
35634;SDS011;21757;43.610;1.440;2023-04-27T04:36:51;7.28;;;4.47;;
35634;SDS011;21757;43.610;1.440;2023-04-27T04:39:17;8.30;;;5.40;;
35634;SDS011;21757;43.610;1.440;2023-04-27T04:41:46;6.13;;;5.07;;
35634;SDS011;21757;43.610;1.440;2023-04-27T04:44:15;6.38;;;5.57;;
35634;SDS011;21757;43.610;1.440;2023-04-27T04:46:41;7.13;;;5.40;;
35634;SDS011;21757;43.610;1.440;2023-04-27T04:49:07;5.70;;;5.15;;
35634;SDS011;21757;43.610;1.440;2023-04-27T04:51:33;6.10;;;5.25;;
35634;SDS011;21757;43.610;1.440;2023-04-27T04:53:59;6.07;;;5.32;;
35634;SDS011;21757;43.610;1.440;2023-04-27T04:56:25;6.10;;;5.50;;
35634;SDS011;21757;43.610;1.440;2023-04-27T04:58:51;5.78;;;5.20;;
35634;SDS011;21757;43.610;1.440;2023-04-27T05:01:16;6.93;;;6.22;;
35634;SDS011;21757;43.610;1.440;2023-04-27T05:03:42;7.07;;;5.60;;
35634;SDS011;21757;43.610;1.440;2023-04-27T05:06:08;7.05;;;5.60;;
35634;SDS011;21757;43.610;1.440;2023-04-27T05:08:34;6.82;;;5.70;;
35634;SDS011;21757;43.610;1.440;2023-04-27T05:11:00;5.97;;;5.40;;
35634;SDS011;21757;43.610;1.440;2023-04-27T05:13:25;6.82;;;6.10;;
35634;SDS011;21757;43.610;1.440;2023-04-27T05:15:52;6.15;;;5.55;;
35634;SDS011;21757;43.610;1.440;2023-04-27T05:18:21;6.60;;;5.90;;
35634;SDS011;21757;43.610;1.440;2023-04-27T05:20:55;8.55;;;6.18;;
35634;SDS011;21757;43.610;1.440;2023-04-27T05:23:21;8.50;;;6.65;;
35634;SDS011;21757;43.610;1.440;2023-04-27T05:25:47;8.68;;;7.22;;
35634;SDS011;21757;43.610;1.440;2023-04-27T05:28:12;6.35;;;5.75;;
35634;SDS011;21757;43.610;1.440;2023-04-27T05:30:38;6.93;;;6.22;;
35634;SDS011;21757;43.610;1.440;2023-04-27T05:33:04;9.05;;;6.78;;
35634;SDS011;21757;43.610;1.440;2023-04-27T05:35:30;7.07;;;6.18;;
35634;SDS011;21757;43.610;1.440;2023-04-27T05:37:56;7.63;;;5.78;;
35634;SDS011;21757;43.610;1.440;2023-04-27T05:40:22;7.03;;;6.28;;
35634;SDS011;21757;43.610;1.440;2023-04-27T05:42:48;8.30;;;6.35;;
35634;SDS011;21757;43.610;1.440;2023-04-27T05:45:14;9.77;;;6.90;;
35634;SDS011;21757;43.610;1.440;2023-04-27T05:47:40;7.03;;;6.35;;
35634;SDS011;21757;43.610;1.440;2023-04-27T05:50:06;13.80;;;11.68;;
35634;SDS011;21757;43.610;1.440;2023-04-27T05:52:32;8.82;;;7.45;;
35634;SDS011;21757;43.610;1.440;2023-04-27T05:54:58;7.45;;;5.93;;
35634;SDS011;21757;43.610;1.440;2023-04-27T05:57:24;8.43;;;6.82;;
35634;SDS011;21757;43.610;1.440;2023-04-27T05:59:50;6.35;;;5.72;;
35634;SDS011;21757;43.610;1.440;2023-04-27T06:02:16;6.60;;;5.97;;
35634;SDS011;21757;43.610;1.440;2023-04-27T06:04:42;18.20;;;13.55;;
35634;SDS011;21757;43.610;1.440;2023-04-27T06:07:08;23.02;;;17.40;;
35634;SDS011;21757;43.610;1.440;2023-04-27T06:09:35;19.88;;;14.32;;
35634;SDS011;21757;43.610;1.440;2023-04-27T06:12:04;35.50;;;25.67;;
35634;SDS011;21757;43.610;1.440;2023-04-27T06:14:32;6.80;;;6.20;;
35634;SDS011;21757;43.610;1.440;2023-04-27T06:16:58;7.90;;;6.22;;
35634;SDS011;21757;43.610;1.440;2023-04-27T06:19:24;6.10;;;5.18;;
35634;SDS011;21757;43.610;1.440;2023-04-27T06:21:51;6.75;;;5.90;;
35634;SDS011;21757;43.610;1.440;2023-04-27T06:24:18;7.22;;;5.05;;
35634;SDS011;21757;43.610;1.440;2023-04-27T06:26:44;5.50;;;4.95;;
35634;SDS011;21757;43.610;1.440;2023-04-27T06:29:09;5.43;;;4.68;;
35634;SDS011;21757;43.610;1.440;2023-04-27T06:31:35;7.15;;;4.97;;
35634;SDS011;21757;43.610;1.440;2023-04-27T06:34:01;8.95;;;4.70;;
35634;SDS011;21757;43.610;1.440;2023-04-27T06:36:27;5.97;;;5.00;;
35634;SDS011;21757;43.610;1.440;2023-04-27T06:38:53;6.85;;;4.97;;
35634;SDS011;21757;43.610;1.440;2023-04-27T06:41:20;5.88;;;4.15;;
35634;SDS011;21757;43.610;1.440;2023-04-27T06:43:46;9.20;;;4.25;;
35634;SDS011;21757;43.610;1.440;2023-04-27T06:46:12;7.30;;;4.45;;
35634;SDS011;21757;43.610;1.440;2023-04-27T06:48:38;6.65;;;4.75;;
35634;SDS011;21757;43.610;1.440;2023-04-27T06:51:04;5.53;;;4.30;;
35634;SDS011;21757;43.610;1.440;2023-04-27T06:53:29;6.97;;;4.70;;
35634;SDS011;21757;43.610;1.440;2023-04-27T06:55:55;7.32;;;4.13;;
35634;SDS011;21757;43.610;1.440;2023-04-27T06:58:21;4.28;;;3.70;;
35634;SDS011;21757;43.610;1.440;2023-04-27T07:00:47;5.07;;;3.33;;
35634;SDS011;21757;43.610;1.440;2023-04-27T07:03:15;2.90;;;2.60;;
35634;SDS011;21757;43.610;1.440;2023-04-27T07:05:41;6.00;;;3.47;;
35634;SDS011;21757;43.610;1.440;2023-04-27T07:08:07;4.82;;;3.28;;
35634;SDS011;21757;43.610;1.440;2023-04-27T07:10:32;4.50;;;3.00;;
35634;SDS011;21757;43.610;1.440;2023-04-27T07:12:58;7.30;;;2.75;;
35634;SDS011;21757;43.610;1.440;2023-04-27T07:15:24;4.40;;;2.40;;
35634;SDS011;21757;43.610;1.440;2023-04-27T07:17:50;3.67;;;2.88;;
35634;SDS011;21757;43.610;1.440;2023-04-27T07:20:19;3.70;;;2.38;;
35634;SDS011;21757;43.610;1.440;2023-04-27T07:22:45;4.72;;;2.30;;
35634;SDS011;21757;43.610;1.440;2023-04-27T07:25:11;3.22;;;2.15;;
35634;SDS011;21757;43.610;1.440;2023-04-27T07:27:37;4.93;;;2.83;;
35634;SDS011;21757;43.610;1.440;2023-04-27T07:30:03;3.97;;;2.92;;
35634;SDS011;21757;43.610;1.440;2023-04-27T07:32:32;2.83;;;2.05;;
35634;SDS011;21757;43.610;1.440;2023-04-27T07:34:58;10.05;;;4.00;;
35634;SDS011;21757;43.610;1.440;2023-04-27T07:37:24;5.18;;;2.90;;
35634;SDS011;21757;43.610;1.440;2023-04-27T07:39:50;3.53;;;2.70;;
35634;SDS011;21757;43.610;1.440;2023-04-27T07:42:17;3.05;;;2.40;;
35634;SDS011;21757;43.610;1.440;2023-04-27T07:44:44;2.97;;;2.40;;
35634;SDS011;21757;43.610;1.440;2023-04-27T07:47:09;5.40;;;2.97;;
35634;SDS011;21757;43.610;1.440;2023-04-27T07:49:38;4.45;;;2.40;;
35634;SDS011;21757;43.610;1.440;2023-04-27T07:52:04;4.53;;;2.63;;
35634;SDS011;21757;43.610;1.440;2023-04-27T07:54:30;7.10;;;2.45;;
35634;SDS011;21757;43.610;1.440;2023-04-27T07:56:55;2.30;;;2.00;;
35634;SDS011;21757;43.610;1.440;2023-04-27T07:59:21;5.32;;;3.88;;
35634;SDS011;21757;43.610;1.440;2023-04-27T08:01:47;4.90;;;2.75;;
35634;SDS011;21757;43.610;1.440;2023-04-27T08:04:12;7.95;;;2.47;;
35634;SDS011;21757;43.610;1.440;2023-04-27T08:06:39;4.32;;;2.47;;
35634;SDS011;21757;43.610;1.440;2023-04-27T08:09:05;5.45;;;3.90;;
35634;SDS011;21757;43.610;1.440;2023-04-27T08:11:32;3.90;;;3.13;;
35634;SDS011;21757;43.610;1.440;2023-04-27T08:13:57;3.88;;;2.65;;
35634;SDS011;21757;43.610;1.440;2023-04-27T08:16:23;5.68;;;2.78;;
35634;SDS011;21757;43.610;1.440;2023-04-27T08:18:48;3.05;;;2.08;;
35634;SDS011;21757;43.610;1.440;2023-04-27T08:21:15;6.03;;;2.55;;
35634;SDS011;21757;43.610;1.440;2023-04-27T08:23:40;4.65;;;2.40;;
35634;SDS011;21757;43.610;1.440;2023-04-27T08:26:06;3.13;;;1.70;;
35634;SDS011;21757;43.610;1.440;2023-04-27T08:28:32;4.55;;;2.90;;
35634;SDS011;21757;43.610;1.440;2023-04-27T08:30:58;29.50;;;19.88;;
35634;SDS011;21757;43.610;1.440;2023-04-27T08:33:24;4.20;;;2.28;;
35634;SDS011;21757;43.610;1.440;2023-04-27T08:35:52;3.63;;;2.45;;
35634;SDS011;21757;43.610;1.440;2023-04-27T08:38:18;10.63;;;2.50;;
35634;SDS011;21757;43.610;1.440;2023-04-27T08:40:44;4.25;;;2.60;;
35634;SDS011;21757;43.610;1.440;2023-04-27T08:43:10;5.40;;;1.98;;
35634;SDS011;21757;43.610;1.440;2023-04-27T08:45:36;3.08;;;2.00;;
35634;SDS011;21757;43.610;1.440;2023-04-27T08:48:01;4.63;;;2.22;;
35634;SDS011;21757;43.610;1.440;2023-04-27T08:50:27;3.30;;;1.80;;
35634;SDS011;21757;43.610;1.440;2023-04-27T08:52:53;11.48;;;2.25;;
35634;SDS011;21757;43.610;1.440;2023-04-27T08:55:19;4.85;;;1.88;;
35634;SDS011;21757;43.610;1.440;2023-04-27T08:57:55;3.38;;;2.15;;
35634;SDS011;21757;43.610;1.440;2023-04-27T09:00:25;2.95;;;2.10;;
35634;SDS011;21757;43.610;1.440;2023-04-27T09:02:51;4.93;;;1.50;;
35634;SDS011;21757;43.610;1.440;2023-04-27T09:05:17;7.40;;;1.65;;
35634;SDS011;21757;43.610;1.440;2023-04-27T09:08:02;5.05;;;1.55;;
35634;SDS011;21757;43.610;1.440;2023-04-27T09:10:50;7.03;;;2.17;;
35634;SDS011;21757;43.610;1.440;2023-04-27T09:13:16;4.13;;;1.50;;
35634;SDS011;21757;43.610;1.440;2023-04-27T09:15:43;3.70;;;1.23;;
35634;SDS011;21757;43.610;1.440;2023-04-27T09:18:17;3.35;;;1.20;;
35634;SDS011;21757;43.610;1.440;2023-04-27T09:20:47;2.50;;;1.70;;
35634;SDS011;21757;43.610;1.440;2023-04-27T09:25:56;1.35;;;0.98;;
35634;SDS011;21757;43.610;1.440;2023-04-27T09:28:25;3.08;;;1.50;;
35634;SDS011;21757;43.610;1.440;2023-04-27T09:30:53;1.42;;;1.20;;
35634;SDS011;21757;43.610;1.440;2023-04-27T09:33:27;14.32;;;2.30;;
35634;SDS011;21757;43.610;1.440;2023-04-27T09:35:54;3.22;;;1.40;;
35634;SDS011;21757;43.610;1.440;2023-04-27T09:38:21;2.67;;;1.08;;
35634;SDS011;21757;43.610;1.440;2023-04-27T09:40:47;3.97;;;1.50;;
35634;SDS011;21757;43.610;1.440;2023-04-27T09:43:15;2.63;;;1.00;;
35634;SDS011;21757;43.610;1.440;2023-04-27T09:45:41;2.42;;;1.23;;
35634;SDS011;21757;43.610;1.440;2023-04-27T09:48:07;1.08;;;1.00;;
35634;SDS011;21757;43.610;1.440;2023-04-27T09:50:34;5.18;;;2.17;;
35634;SDS011;21757;43.610;1.440;2023-04-27T09:53:01;3.15;;;1.13;;
35634;SDS011;21757;43.610;1.440;2023-04-27T09:55:32;2.33;;;1.10;;
35634;SDS011;21757;43.610;1.440;2023-04-27T10:03:58;2.00;;;0.98;;
35634;SDS011;21757;43.610;1.440;2023-04-27T10:06:52;1.30;;;1.10;;
35634;SDS011;21757;43.610;1.440;2023-04-27T10:09:39;2.95;;;1.23;;
35634;SDS011;21757;43.610;1.440;2023-04-27T10:12:38;2.95;;;1.65;;
35634;SDS011;21757;43.610;1.440;2023-04-27T10:15:10;3.63;;;1.80;;
35634;SDS011;21757;43.610;1.440;2023-04-27T10:17:50;2.75;;;1.70;;
35634;SDS011;21757;43.610;1.440;2023-04-27T10:20:32;5.50;;;2.20;;
35634;SDS011;21757;43.610;1.440;2023-04-27T10:22:59;13.80;;;3.25;;
35634;SDS011;21757;43.610;1.440;2023-04-27T10:25:26;3.88;;;1.60;;
35634;SDS011;21757;43.610;1.440;2023-04-27T10:28:00;5.25;;;3.38;;
35634;SDS011;21757;43.610;1.440;2023-04-27T10:30:30;8.40;;;3.45;;
35634;SDS011;21757;43.610;1.440;2023-04-27T10:33:04;5.30;;;2.10;;
35634;SDS011;21757;43.610;1.440;2023-04-27T10:35:35;2.30;;;1.10;;
35634;SDS011;21757;43.610;1.440;2023-04-27T10:40:58;2.40;;;1.90;;
35634;SDS011;21757;43.610;1.440;2023-04-27T10:43:32;5.38;;;1.80;;
35634;SDS011;21757;43.610;1.440;2023-04-27T10:48:38;3.30;;;1.73;;
35634;SDS011;21757;43.610;1.440;2023-04-27T10:51:05;6.15;;;3.25;;
35634;SDS011;21757;43.610;1.440;2023-04-27T10:53:34;5.03;;;2.47;;
35634;SDS011;21757;43.610;1.440;2023-04-27T10:56:00;4.15;;;1.95;;
35634;SDS011;21757;43.610;1.440;2023-04-27T10:58:27;3.95;;;2.55;;
35634;SDS011;21757;43.610;1.440;2023-04-27T11:00:53;4.50;;;2.30;;
35634;SDS011;21757;43.610;1.440;2023-04-27T11:03:22;3.95;;;2.75;;
35634;SDS011;21757;43.610;1.440;2023-04-27T11:06:02;5.30;;;3.55;;
35634;SDS011;21757;43.610;1.440;2023-04-27T11:08:29;5.38;;;2.67;;
35634;SDS011;21757;43.610;1.440;2023-04-27T11:10:55;6.97;;;4.25;;
35634;SDS011;21757;43.610;1.440;2023-04-27T11:13:23;2.78;;;2.15;;
35634;SDS011;21757;43.610;1.440;2023-04-27T11:15:51;5.88;;;4.00;;
35634;SDS011;21757;43.610;1.440;2023-04-27T11:18:25;3.40;;;2.60;;
35634;SDS011;21757;43.610;1.440;2023-04-27T11:20:54;2.30;;;1.85;;
35634;SDS011;21757;43.610;1.440;2023-04-27T11:23:40;1.88;;;1.40;;
35634;SDS011;21757;43.610;1.440;2023-04-27T11:26:13;2.78;;;2.00;;
35634;SDS011;21757;43.610;1.440;2023-04-27T11:28:41;2.03;;;1.30;;
35634;SDS011;21757;43.610;1.440;2023-04-27T11:31:39;1.80;;;1.27;;
35634;SDS011;21757;43.610;1.440;2023-04-27T11:34:06;3.38;;;2.10;;
35634;SDS011;21757;43.610;1.440;2023-04-27T11:36:32;2.33;;;1.70;;
35634;SDS011;21757;43.610;1.440;2023-04-27T11:38:58;2.08;;;1.50;;
35634;SDS011;21757;43.610;1.440;2023-04-27T11:41:33;2.72;;;1.50;;
35634;SDS011;21757;43.610;1.440;2023-04-27T11:44:06;2.13;;;1.20;;
35634;SDS011;21757;43.610;1.440;2023-04-27T11:46:33;1.67;;;1.00;;
35634;SDS011;21757;43.610;1.440;2023-04-27T11:49:03;2.55;;;1.80;;
35634;SDS011;21757;43.610;1.440;2023-04-27T11:51:30;0.85;;;0.85;;
35634;SDS011;21757;43.610;1.440;2023-04-27T11:54:00;12.95;;;3.85;;
35634;SDS011;21757;43.610;1.440;2023-04-27T11:56:33;2.25;;;1.10;;
35634;SDS011;21757;43.610;1.440;2023-04-27T11:59:00;2.60;;;1.73;;
35634;SDS011;21757;43.610;1.440;2023-04-27T12:01:26;1.35;;;1.15;;
35634;SDS011;21757;43.610;1.440;2023-04-27T12:03:52;2.42;;;0.90;;
35634;SDS011;21757;43.610;1.440;2023-04-27T12:06:23;2.53;;;1.02;;
35634;SDS011;21757;43.610;1.440;2023-04-27T12:08:49;1.15;;;0.90;;
35634;SDS011;21757;43.610;1.440;2023-04-27T12:11:15;1.35;;;0.95;;
35634;SDS011;21757;43.610;1.440;2023-04-27T12:13:41;1.92;;;0.95;;
35634;SDS011;21757;43.610;1.440;2023-04-27T12:16:07;1.50;;;1.20;;
35634;SDS011;21757;43.610;1.440;2023-04-27T12:18:32;14.18;;;8.35;;
35634;SDS011;21757;43.610;1.440;2023-04-27T12:20:58;1.88;;;1.50;;
35634;SDS011;21757;43.610;1.440;2023-04-27T12:23:24;2.53;;;1.13;;
35634;SDS011;21757;43.610;1.440;2023-04-27T12:25:50;2.67;;;1.98;;
35634;SDS011;21757;43.610;1.440;2023-04-27T12:28:15;1.38;;;0.90;;
35634;SDS011;21757;43.610;1.440;2023-04-27T12:30:43;5.32;;;1.30;;
35634;SDS011;21757;43.610;1.440;2023-04-27T12:33:09;4.13;;;1.45;;
35634;SDS011;21757;43.610;1.440;2023-04-27T12:35:35;2.60;;;1.10;;
35634;SDS011;21757;43.610;1.440;2023-04-27T12:38:01;1.85;;;0.90;;
35634;SDS011;21757;43.610;1.440;2023-04-27T12:40:27;1.90;;;1.45;;
35634;SDS011;21757;43.610;1.440;2023-04-27T12:42:53;2.55;;;1.10;;
35634;SDS011;21757;43.610;1.440;2023-04-27T12:45:19;1.73;;;0.75;;
35634;SDS011;21757;43.610;1.440;2023-04-27T12:47:45;2.42;;;1.30;;
35634;SDS011;21757;43.610;1.440;2023-04-27T12:50:11;2.83;;;1.50;;
35634;SDS011;21757;43.610;1.440;2023-04-27T12:52:37;7.10;;;1.35;;
35634;SDS011;21757;43.610;1.440;2023-04-27T12:55:03;2.13;;;0.93;;
35634;SDS011;21757;43.610;1.440;2023-04-27T12:57:30;4.35;;;1.35;;
35634;SDS011;21757;43.610;1.440;2023-04-27T12:59:56;3.47;;;2.17;;
35634;SDS011;21757;43.610;1.440;2023-04-27T13:02:21;2.83;;;1.00;;
35634;SDS011;21757;43.610;1.440;2023-04-27T13:04:47;6.15;;;1.50;;
35634;SDS011;21757;43.610;1.440;2023-04-27T13:07:13;3.35;;;1.00;;
35634;SDS011;21757;43.610;1.440;2023-04-27T13:09:39;1.67;;;1.10;;
35634;SDS011;21757;43.610;1.440;2023-04-27T13:12:05;2.08;;;1.92;;
35634;SDS011;21757;43.610;1.440;2023-04-27T13:14:31;3.28;;;2.20;;
35634;SDS011;21757;43.610;1.440;2023-04-27T13:16:58;3.55;;;1.35;;
35634;SDS011;21757;43.610;1.440;2023-04-27T13:19:24;2.00;;;1.05;;
35634;SDS011;21757;43.610;1.440;2023-04-27T13:21:49;6.43;;;2.05;;
35634;SDS011;21757;43.610;1.440;2023-04-27T13:24:15;2.47;;;1.00;;
35634;SDS011;21757;43.610;1.440;2023-04-27T13:26:45;11.07;;;5.97;;
35634;SDS011;21757;43.610;1.440;2023-04-27T13:29:11;2.03;;;1.20;;
35634;SDS011;21757;43.610;1.440;2023-04-27T13:31:37;2.25;;;1.13;;
35634;SDS011;21757;43.610;1.440;2023-04-27T13:34:02;1.48;;;0.60;;
35634;SDS011;21757;43.610;1.440;2023-04-27T13:36:28;1.92;;;0.80;;
35634;SDS011;21757;43.610;1.440;2023-04-27T13:38:54;0.90;;;0.73;;
35634;SDS011;21757;43.610;1.440;2023-04-27T13:41:20;2.28;;;0.80;;
35634;SDS011;21757;43.610;1.440;2023-04-27T13:43:46;2.20;;;1.55;;
35634;SDS011;21757;43.610;1.440;2023-04-27T13:46:13;3.72;;;2.50;;
35634;SDS011;21757;43.610;1.440;2023-04-27T13:48:39;4.00;;;1.40;;
35634;SDS011;21757;43.610;1.440;2023-04-27T13:51:05;4.65;;;1.85;;
35634;SDS011;21757;43.610;1.440;2023-04-27T13:53:30;2.40;;;0.82;;
35634;SDS011;21757;43.610;1.440;2023-04-27T13:55:56;3.50;;;0.90;;
35634;SDS011;21757;43.610;1.440;2023-04-27T13:58:22;2.80;;;0.82;;
35634;SDS011;21757;43.610;1.440;2023-04-27T14:00:48;1.67;;;1.27;;
35634;SDS011;21757;43.610;1.440;2023-04-27T14:03:16;1.25;;;0.90;;
35634;SDS011;21757;43.610;1.440;2023-04-27T14:05:43;1.58;;;0.88;;
35634;SDS011;21757;43.610;1.440;2023-04-27T14:08:09;3.40;;;2.50;;
35634;SDS011;21757;43.610;1.440;2023-04-27T14:10:35;1.30;;;0.80;;
35634;SDS011;21757;43.610;1.440;2023-04-27T14:13:02;1.65;;;0.93;;
35634;SDS011;21757;43.610;1.440;2023-04-27T14:15:28;2.90;;;1.30;;
35634;SDS011;21757;43.610;1.440;2023-04-27T14:17:54;0.98;;;0.90;;
35634;SDS011;21757;43.610;1.440;2023-04-27T14:20:20;2.53;;;1.05;;
35634;SDS011;21757;43.610;1.440;2023-04-27T14:22:46;1.70;;;0.80;;
35634;SDS011;21757;43.610;1.440;2023-04-27T14:25:12;1.60;;;0.80;;
35634;SDS011;21757;43.610;1.440;2023-04-27T14:27:39;1.92;;;1.27;;
35634;SDS011;21757;43.610;1.440;2023-04-27T14:30:05;1.75;;;0.93;;
35634;SDS011;21757;43.610;1.440;2023-04-27T14:32:31;1.88;;;0.90;;
35634;SDS011;21757;43.610;1.440;2023-04-27T14:34:56;2.85;;;1.52;;
35634;SDS011;21757;43.610;1.440;2023-04-27T14:37:22;1.52;;;1.10;;
35634;SDS011;21757;43.610;1.440;2023-04-27T14:39:48;2.65;;;1.30;;
35634;SDS011;21757;43.610;1.440;2023-04-27T14:42:14;4.70;;;1.45;;
35634;SDS011;21757;43.610;1.440;2023-04-27T14:44:39;2.90;;;2.45;;
35634;SDS011;21757;43.610;1.440;2023-04-27T14:47:05;3.45;;;2.85;;
35634;SDS011;21757;43.610;1.440;2023-04-27T14:49:31;6.72;;;4.40;;
35634;SDS011;21757;43.610;1.440;2023-04-27T14:51:56;3.42;;;1.90;;
35634;SDS011;21757;43.610;1.440;2023-04-27T14:54:24;2.53;;;1.45;;
35634;SDS011;21757;43.610;1.440;2023-04-27T14:56:50;0.90;;;0.80;;
35634;SDS011;21757;43.610;1.440;2023-04-27T14:59:15;1.45;;;0.80;;